sensor_id;sensor_type;location;lat;lon;timestamp;pressure;altitude;pressure_sealevel;temperature;humidity
69245;BME280;56357;52.304;4.870;2023-02-04T00:01:56;103534.13;;;17.69;53.82
69245;BME280;56357;52.304;4.870;2023-02-04T00:04:23;103529.81;;;17.66;53.92
69245;BME280;56357;52.304;4.870;2023-02-04T00:06:49;103527.00;;;17.66;53.96
69245;BME280;56357;52.304;4.870;2023-02-04T00:09:16;103519.69;;;17.65;53.81
69245;BME280;56357;52.304;4.870;2023-02-04T00:11:42;103511.47;;;17.64;53.71
69245;BME280;56357;52.304;4.870;2023-02-04T00:14:09;103514.72;;;17.61;53.76
69245;BME280;56357;52.304;4.870;2023-02-04T00:16:36;103508.47;;;17.59;53.94
69245;BME280;56357;52.304;4.870;2023-02-04T00:19:02;103507.84;;;17.63;54.01
69245;BME280;56357;52.304;4.870;2023-02-04T00:21:29;103517.53;;;17.61;53.83
69245;BME280;56357;52.304;4.870;2023-02-04T00:23:55;103520.75;;;17.58;53.82
69245;BME280;56357;52.304;4.870;2023-02-04T00:26:22;103520.94;;;17.56;54.18
69245;BME280;56357;52.304;4.870;2023-02-04T00:28:48;103530.88;;;17.59;54.25
69245;BME280;56357;52.304;4.870;2023-02-04T00:31:15;103534.31;;;17.54;53.93
69245;BME280;56357;52.304;4.870;2023-02-04T00:33:41;103537.31;;;17.53;54.11
69245;BME280;56357;52.304;4.870;2023-02-04T00:36:08;103541.66;;;17.55;53.98
69245;BME280;56357;52.304;4.870;2023-02-04T00:38:34;103542.94;;;17.53;54.16
69245;BME280;56357;52.304;4.870;2023-02-04T00:41:01;103537.09;;;17.48;53.75
69245;BME280;56357;52.304;4.870;2023-02-04T00:43:27;103540.78;;;17.48;53.81
69245;BME280;56357;52.304;4.870;2023-02-04T00:45:54;103549.19;;;17.48;53.87
69245;BME280;56357;52.304;4.870;2023-02-04T00:48:20;103548.69;;;17.45;54.00
69245;BME280;56357;52.304;4.870;2023-02-04T00:50:47;103548.28;;;17.48;53.99
69245;BME280;56357;52.304;4.870;2023-02-04T00:53:13;103562.50;;;17.46;54.02
69245;BME280;56357;52.304;4.870;2023-02-04T00:55:39;103549.56;;;17.45;53.97
69245;BME280;56357;52.304;4.870;2023-02-04T00:58:06;103564.22;;;17.47;53.65
69245;BME280;56357;52.304;4.870;2023-02-04T01:00:32;103565.94;;;17.42;53.81
69245;BME280;56357;52.304;4.870;2023-02-04T01:02:59;103560.13;;;17.43;54.12
69245;BME280;56357;52.304;4.870;2023-02-04T01:05:25;103565.06;;;17.41;53.71
69245;BME280;56357;52.304;4.870;2023-02-04T01:07:52;103566.16;;;17.40;53.87
69245;BME280;56357;52.304;4.870;2023-02-04T01:10:18;103560.31;;;17.35;53.92
69245;BME280;56357;52.304;4.870;2023-02-04T01:12:45;103565.50;;;17.38;53.97
69245;BME280;56357;52.304;4.870;2023-02-04T01:15:11;103568.91;;;17.33;53.83
69245;BME280;56357;52.304;4.870;2023-02-04T01:17:37;103565.03;;;17.28;54.13
69245;BME280;56357;52.304;4.870;2023-02-04T01:20:06;103576.06;;;17.36;53.98
69245;BME280;56357;52.304;4.870;2023-02-04T01:22:32;103582.72;;;17.35;53.80
69245;BME280;56357;52.304;4.870;2023-02-04T01:24:59;103584.41;;;17.29;53.79
69245;BME280;56357;52.304;4.870;2023-02-04T01:27:25;103584.41;;;17.29;53.79
69245;BME280;56357;52.304;4.870;2023-02-04T01:29:52;103595.66;;;17.36;53.77
69245;BME280;56357;52.304;4.870;2023-02-04T01:32:18;103592.41;;;17.32;53.76
69245;BME280;56357;52.304;4.870;2023-02-04T01:34:45;103591.50;;;17.25;53.97
69245;BME280;56357;52.304;4.870;2023-02-04T01:37:11;103603.81;;;17.31;53.78
69245;BME280;56357;52.304;4.870;2023-02-04T01:39:37;103602.97;;;17.30;53.71
69245;BME280;56357;52.304;4.870;2023-02-04T01:42:04;103608.56;;;17.30;53.71
69245;BME280;56357;52.304;4.870;2023-02-04T01:44:31;103607.91;;;17.28;53.88
69245;BME280;56357;52.304;4.870;2023-02-04T01:46:57;103606.16;;;17.21;53.98
69245;BME280;56357;52.304;4.870;2023-02-04T01:49:24;103606.38;;;17.26;53.94
69245;BME280;56357;52.304;4.870;2023-02-04T01:51:51;103605.72;;;17.24;53.81
69245;BME280;56357;52.304;4.870;2023-02-04T01:54:18;103628.78;;;17.26;53.79
69245;BME280;56357;52.304;4.870;2023-02-04T01:56:46;103620.81;;;17.23;53.76
69245;BME280;56357;52.304;4.870;2023-02-04T01:59:15;103619.28;;;17.20;53.88
69245;BME280;56357;52.304;4.870;2023-02-04T02:01:47;103622.75;;;17.22;53.58
69245;BME280;56357;52.304;4.870;2023-02-04T02:04:37;103628.97;;;17.18;53.85
69245;BME280;56357;52.304;4.870;2023-02-04T02:07:04;103625.94;;;17.19;53.67
69245;BME280;56357;52.304;4.870;2023-02-04T02:09:32;103618.84;;;17.17;53.76
69245;BME280;56357;52.304;4.870;2023-02-04T02:12:00;103629.19;;;17.16;53.71
69245;BME280;56357;52.304;4.870;2023-02-04T02:14:28;103620.56;;;17.18;53.94
69245;BME280;56357;52.304;4.870;2023-02-04T02:16:54;103615.38;;;17.15;53.65
69245;BME280;56357;52.304;4.870;2023-02-04T02:19:27;103624.66;;;17.15;53.54
69245;BME280;56357;52.304;4.870;2023-02-04T02:22:02;103628.31;;;17.16;53.65
69245;BME280;56357;52.304;4.870;2023-02-04T02:24:33;103626.97;;;17.12;53.64
69245;BME280;56357;52.304;4.870;2023-02-04T02:27:06;103624.84;;;17.14;53.50
69245;BME280;56357;52.304;4.870;2023-02-04T02:29:34;103635.38;;;17.12;53.55
69245;BME280;56357;52.304;4.870;2023-02-04T02:32:00;103637.34;;;17.11;53.54
69245;BME280;56357;52.304;4.870;2023-02-04T02:34:28;103632.59;;;17.12;53.64
69245;BME280;56357;52.304;4.870;2023-02-04T02:36:55;103642.06;;;17.11;53.79
69245;BME280;56357;52.304;4.870;2023-02-04T02:39:23;103625.66;;;17.08;53.85
69245;BME280;56357;52.304;4.870;2023-02-04T02:41:50;103638.81;;;17.07;53.70
69245;BME280;56357;52.304;4.870;2023-02-04T02:44:17;103633.41;;;17.06;53.37
69245;BME280;56357;52.304;4.870;2023-02-04T02:46:43;103642.47;;;17.08;54.31
69245;BME280;56357;52.304;4.870;2023-02-04T02:49:15;103644.22;;;17.09;53.70
69245;BME280;56357;52.304;4.870;2023-02-04T02:51:43;103643.78;;;17.05;53.65
69245;BME280;56357;52.304;4.870;2023-02-04T02:54:28;103639.00;;;16.99;53.63
69245;BME280;56357;52.304;4.870;2023-02-04T02:56:56;103645.69;;;17.05;53.54
69245;BME280;56357;52.304;4.870;2023-02-04T02:59:24;103645.47;;;17.00;53.87
69245;BME280;56357;52.304;4.870;2023-02-04T03:01:55;103646.72;;;16.97;53.62
69245;BME280;56357;52.304;4.870;2023-02-04T03:04:24;103646.72;;;16.97;53.80
69245;BME280;56357;52.304;4.870;2023-02-04T03:06:52;103641.78;;;16.99;53.67
69245;BME280;56357;52.304;4.870;2023-02-04T03:09:20;103641.56;;;17.01;53.50
69245;BME280;56357;52.304;4.870;2023-02-04T03:11:47;103647.19;;;17.01;53.56
69245;BME280;56357;52.304;4.870;2023-02-04T03:14:14;103642.84;;;16.98;53.72
69245;BME280;56357;52.304;4.870;2023-02-04T03:16:40;103647.59;;;16.98;53.62
69245;BME280;56357;52.304;4.870;2023-02-04T03:19:09;103650.41;;;16.98;53.75
69245;BME280;56357;52.304;4.870;2023-02-04T03:21:36;103643.72;;;16.99;53.59
69245;BME280;56357;52.304;4.870;2023-02-04T03:24:04;103651.44;;;16.97;53.60
69245;BME280;56357;52.304;4.870;2023-02-04T03:26:31;103642.41;;;16.95;53.62
69245;BME280;56357;52.304;4.870;2023-02-04T03:28:58;103650.13;;;16.93;53.61
69245;BME280;56357;52.304;4.870;2023-02-04T03:31:25;103646.22;;;16.87;53.58
69245;BME280;56357;52.304;4.870;2023-02-04T03:33:51;103647.97;;;16.88;53.81
69245;BME280;56357;52.304;4.870;2023-02-04T03:36:17;103653.75;;;16.87;53.65
69245;BME280;56357;52.304;4.870;2023-02-04T03:38:44;103639.72;;;16.80;53.63
69245;BME280;56357;52.304;4.870;2023-02-04T03:41:10;103644.28;;;16.88;53.57
69245;BME280;56357;52.304;4.870;2023-02-04T03:43:37;103652.69;;;16.88;53.66
69245;BME280;56357;52.304;4.870;2023-02-04T03:46:03;103656.16;;;16.90;53.59
69245;BME280;56357;52.304;4.870;2023-02-04T03:48:30;103647.47;;;16.78;53.64
69245;BME280;56357;52.304;4.870;2023-02-04T03:50:56;103654.84;;;16.86;53.87
69245;BME280;56357;52.304;4.870;2023-02-04T03:53:23;103653.75;;;16.87;53.59
69245;BME280;56357;52.304;4.870;2023-02-04T03:55:49;103656.53;;;16.87;53.62
69245;BME280;56357;52.304;4.870;2023-02-04T03:58:16;103655.88;;;16.85;53.46
69245;BME280;56357;52.304;4.870;2023-02-04T04:00:42;103656.81;;;16.92;53.59
69245;BME280;56357;52.304;4.870;2023-02-04T04:03:08;103659.63;;;16.92;53.56
69245;BME280;56357;52.304;4.870;2023-02-04T04:05:35;103658.75;;;16.91;53.46
69245;BME280;56357;52.304;4.870;2023-02-04T04:08:01;103666.25;;;16.91;53.38
69245;BME280;56357;52.304;4.870;2023-02-04T04:10:28;103658.75;;;16.91;53.48
69245;BME280;56357;52.304;4.870;2023-02-04T04:12:54;103664.78;;;16.95;53.65
69245;BME280;56357;52.304;4.870;2023-02-04T04:15:21;103656.38;;;16.95;53.70
69245;BME280;56357;52.304;4.870;2023-02-04T04:17:48;103656.38;;;16.95;53.59
69245;BME280;56357;52.304;4.870;2023-02-04T04:20:14;103665.22;;;16.92;53.63
69245;BME280;56357;52.304;4.870;2023-02-04T04:22:41;103662.41;;;16.92;53.67
69245;BME280;56357;52.304;4.870;2023-02-04T04:25:08;103671.06;;;16.97;53.45
69245;BME280;56357;52.304;4.870;2023-02-04T04:27:34;103667.84;;;17.00;53.59
69245;BME280;56357;52.304;4.870;2023-02-04T04:30:01;103657.06;;;16.97;53.60
69245;BME280;56357;52.304;4.870;2023-02-04T04:32:28;103675.38;;;16.99;53.39
69245;BME280;56357;52.304;4.870;2023-02-04T04:34:54;103672.78;;;16.98;53.65
69245;BME280;56357;52.304;4.870;2023-02-04T04:37:20;103671.78;;;17.05;53.75
69245;BME280;56357;52.304;4.870;2023-02-04T04:39:47;103670.66;;;17.00;53.46
69245;BME280;56357;52.304;4.870;2023-02-04T04:42:13;103672.38;;;17.01;53.70
69245;BME280;56357;52.304;4.870;2023-02-04T04:44:40;103659.84;;;16.97;53.87
69245;BME280;56357;52.304;4.870;2023-02-04T04:47:06;103670.47;;;17.08;53.46
69245;BME280;56357;52.304;4.870;2023-02-04T04:49:33;103664.88;;;17.08;53.50
69245;BME280;56357;52.304;4.870;2023-02-04T04:51:59;103657.97;;;17.04;53.61
69245;BME280;56357;52.304;4.870;2023-02-04T04:54:25;103667.66;;;17.08;53.46
69245;BME280;56357;52.304;4.870;2023-02-04T04:56:52;103669.19;;;17.10;53.46
69245;BME280;56357;52.304;4.870;2023-02-04T04:59:18;103660.78;;;17.04;53.40
69245;BME280;56357;52.304;4.870;2023-02-04T05:01:47;103671.34;;;17.08;53.51
69245;BME280;56357;52.304;4.870;2023-02-04T05:04:13;103666.19;;;17.12;53.37
69245;BME280;56357;52.304;4.870;2023-02-04T05:06:40;103653.44;;;17.03;53.79
69245;BME280;56357;52.304;4.870;2023-02-04T05:09:06;103657.13;;;17.10;53.32
69245;BME280;56357;52.304;4.870;2023-02-04T05:11:33;103661.22;;;17.07;53.81
69245;BME280;56357;52.304;4.870;2023-02-04T05:14:00;103666.13;;;16.99;53.75
69245;BME280;56357;52.304;4.870;2023-02-04T05:16:26;103676.06;;;17.08;53.92
69245;BME280;56357;52.304;4.870;2023-02-04T05:18:53;103673.94;;;17.10;53.87
69245;BME280;56357;52.304;4.870;2023-02-04T05:21:19;103684.69;;;17.06;53.76
69245;BME280;56357;52.304;4.870;2023-02-04T05:23:46;103699.13;;;17.10;53.72
69245;BME280;56357;52.304;4.870;2023-02-04T05:26:12;103703.69;;;17.11;53.65
69245;BME280;56357;52.304;4.870;2023-02-04T05:28:38;103707.81;;;17.15;53.71
69245;BME280;56357;52.304;4.870;2023-02-04T05:31:05;103708.00;;;17.13;53.80
69245;BME280;56357;52.304;4.870;2023-02-04T05:33:31;103707.13;;;17.13;53.78
69245;BME280;56357;52.304;4.870;2023-02-04T05:35:58;103710.53;;;17.08;53.95
69245;BME280;56357;52.304;4.870;2023-02-04T05:38:24;103703.59;;;16.98;53.94
69245;BME280;56357;52.304;4.870;2023-02-04T05:40:51;103705.97;;;17.01;54.04
69245;BME280;56357;52.304;4.870;2023-02-04T05:43:17;103711.41;;;17.09;53.68
69245;BME280;56357;52.304;4.870;2023-02-04T05:45:43;103704.56;;;17.11;53.64
69245;BME280;56357;52.304;4.870;2023-02-04T05:48:10;103714.00;;;17.10;53.84
69245;BME280;56357;52.304;4.870;2023-02-04T05:50:36;103713.63;;;17.13;53.80
69245;BME280;56357;52.304;4.870;2023-02-04T05:53:03;103708.41;;;17.10;53.76
69245;BME280;56357;52.304;4.870;2023-02-04T05:55:29;103707.06;;;17.06;53.94
69245;BME280;56357;52.304;4.870;2023-02-04T05:57:55;103704.28;;;17.06;54.07
69245;BME280;56357;52.304;4.870;2023-02-04T06:00:22;103709.06;;;17.12;54.08
69245;BME280;56357;52.304;4.870;2023-02-04T06:02:48;103717.22;;;17.07;53.91
69245;BME280;56357;52.304;4.870;2023-02-04T06:05:15;103722.00;;;17.13;53.95
69245;BME280;56357;52.304;4.870;2023-02-04T06:07:42;103719.16;;;17.07;54.00
69245;BME280;56357;52.304;4.870;2023-02-04T06:10:09;103729.53;;;17.13;53.76
69245;BME280;56357;52.304;4.870;2023-02-04T06:12:36;103730.00;;;17.16;53.92
69245;BME280;56357;52.304;4.870;2023-02-04T06:15:02;103737.94;;;17.13;53.97
69245;BME280;56357;52.304;4.870;2023-02-04T06:17:29;103744.81;;;17.10;53.97
69245;BME280;56357;52.304;4.870;2023-02-04T06:19:55;103745.03;;;17.09;54.17
69245;BME280;56357;52.304;4.870;2023-02-04T06:22:22;103742.44;;;17.14;54.14
69245;BME280;56357;52.304;4.870;2023-02-04T06:24:50;103745.06;;;17.15;53.88
69245;BME280;56357;52.304;4.870;2023-02-04T06:27:17;103747.66;;;17.17;53.88
69245;BME280;56357;52.304;4.870;2023-02-04T06:29:51;103758.06;;;17.23;53.91
69245;BME280;56357;52.304;4.870;2023-02-04T06:32:19;103765.13;;;17.19;53.93
69245;BME280;56357;52.304;4.870;2023-02-04T06:34:46;103756.31;;;17.22;53.66
69245;BME280;56357;52.304;4.870;2023-02-04T06:37:12;103763.00;;;17.21;54.07
69245;BME280;56357;52.304;4.870;2023-02-04T06:39:41;103767.47;;;17.15;54.29
69245;BME280;56357;52.304;4.870;2023-02-04T06:42:08;103771.41;;;17.21;54.20
69245;BME280;56357;52.304;4.870;2023-02-04T06:44:34;103758.06;;;17.23;54.14
69245;BME280;56357;52.304;4.870;2023-02-04T06:47:01;103753.13;;;17.25;53.71
69245;BME280;56357;52.304;4.870;2023-02-04T06:49:28;103753.56;;;17.28;53.98
69245;BME280;56357;52.304;4.870;2023-02-04T06:51:54;103757.41;;;17.27;54.37
69245;BME280;56357;52.304;4.870;2023-02-04T06:54:21;103771.44;;;17.27;54.53
69245;BME280;56357;52.304;4.870;2023-02-04T06:56:47;103766.69;;;17.28;54.16
69245;BME280;56357;52.304;4.870;2023-02-04T06:59:14;103773.19;;;17.35;54.39
69245;BME280;56357;52.304;4.870;2023-02-04T07:01:40;103769.34;;;17.36;54.30
69245;BME280;56357;52.304;4.870;2023-02-04T07:04:06;103782.91;;;17.39;54.60
69245;BME280;56357;52.304;4.870;2023-02-04T07:06:33;103782.91;;;17.39;54.54
69245;BME280;56357;52.304;4.870;2023-02-04T07:08:59;103783.06;;;17.31;55.09
69245;BME280;56357;52.304;4.870;2023-02-04T07:11:26;103790.44;;;17.38;54.95
69245;BME280;56357;52.304;4.870;2023-02-04T07:13:52;103790.06;;;17.42;54.81
69245;BME280;56357;52.304;4.870;2023-02-04T07:16:19;103796.53;;;17.42;55.10
69245;BME280;56357;52.304;4.870;2023-02-04T07:18:45;103794.78;;;17.41;55.37
69245;BME280;56357;52.304;4.870;2023-02-04T07:21:12;103796.38;;;17.50;55.29
69245;BME280;56357;52.304;4.870;2023-02-04T07:23:38;103798.84;;;17.38;55.99
69245;BME280;56357;52.304;4.870;2023-02-04T07:26:05;103809.91;;;17.47;55.61
69245;BME280;56357;52.304;4.870;2023-02-04T07:28:31;103815.06;;;17.43;55.49
69245;BME280;56357;52.304;4.870;2023-02-04T07:30:57;103807.31;;;17.45;55.30
69245;BME280;56357;52.304;4.870;2023-02-04T07:33:24;103819.06;;;17.55;55.26
69245;BME280;56357;52.304;4.870;2023-02-04T07:35:50;103824.78;;;17.47;55.44
69245;BME280;56357;52.304;4.870;2023-02-04T07:38:17;103822.69;;;17.49;55.59
69245;BME280;56357;52.304;4.870;2023-02-04T07:40:43;103832.31;;;17.47;55.16
69245;BME280;56357;52.304;4.870;2023-02-04T07:43:10;103831.47;;;17.46;54.18
69245;BME280;56357;52.304;4.870;2023-02-04T07:45:36;103831.47;;;17.46;53.02
69245;BME280;56357;52.304;4.870;2023-02-04T07:48:03;103831.88;;;17.43;53.34
69245;BME280;56357;52.304;4.870;2023-02-04T07:50:29;103831.22;;;17.41;53.39
69245;BME280;56357;52.304;4.870;2023-02-04T07:52:56;103830.81;;;17.44;53.54
69245;BME280;56357;52.304;4.870;2023-02-04T07:55:22;103828.69;;;17.46;53.41
69245;BME280;56357;52.304;4.870;2023-02-04T07:57:49;103836.09;;;17.54;53.80
69245;BME280;56357;52.304;4.870;2023-02-04T08:00:15;103831.75;;;17.51;53.71
69245;BME280;56357;52.304;4.870;2023-02-04T08:02:42;103840.59;;;17.48;54.08
69245;BME280;56357;52.304;4.870;2023-02-04T08:05:09;103836.94;;;17.54;53.98
69245;BME280;56357;52.304;4.870;2023-02-04T08:07:36;103846.47;;;17.60;54.25
69245;BME280;56357;52.304;4.870;2023-02-04T08:10:04;103855.34;;;17.63;54.10
69245;BME280;56357;52.304;4.870;2023-02-04T08:12:30;103858.97;;;17.57;54.51
69245;BME280;56357;52.304;4.870;2023-02-04T08:14:57;103853.44;;;17.70;54.37
69245;BME280;56357;52.304;4.870;2023-02-04T08:17:24;103870.69;;;17.67;54.58
69245;BME280;56357;52.304;4.870;2023-02-04T08:19:50;103866.13;;;17.66;54.68
69245;BME280;56357;52.304;4.870;2023-02-04T08:22:16;103881.41;;;17.64;54.73
69245;BME280;56357;52.304;4.870;2023-02-04T08:24:43;103879.94;;;17.68;55.05
69245;BME280;56357;52.304;4.870;2023-02-04T08:27:10;103874.53;;;17.66;55.11
69245;BME280;56357;52.304;4.870;2023-02-04T08:29:37;103881.47;;;17.70;55.14
69245;BME280;56357;52.304;4.870;2023-02-04T08:32:03;103884.22;;;17.64;55.47
69245;BME280;56357;52.304;4.870;2023-02-04T08:34:30;103888.09;;;17.63;55.74
69245;BME280;56357;52.304;4.870;2023-02-04T08:36:56;103889.00;;;17.70;55.84
69245;BME280;56357;52.304;4.870;2023-02-04T08:39:23;103882.78;;;17.74;55.52
69245;BME280;56357;52.304;4.870;2023-02-04T08:41:49;103882.56;;;17.69;55.79
69245;BME280;56357;52.304;4.870;2023-02-04T08:44:16;103885.53;;;17.68;56.25
69245;BME280;56357;52.304;4.870;2023-02-04T08:46:43;103887.31;;;17.75;56.18
69245;BME280;56357;52.304;4.870;2023-02-04T08:49:09;103895.72;;;17.75;55.95
69245;BME280;56357;52.304;4.870;2023-02-04T08:51:36;103894.22;;;17.73;55.60
69245;BME280;56357;52.304;4.870;2023-02-04T08:54:02;103892.75;;;17.77;55.87
69245;BME280;56357;52.304;4.870;2023-02-04T08:56:29;103895.56;;;17.83;55.50
69245;BME280;56357;52.304;4.870;2023-02-04T08:58:55;103894.91;;;17.81;55.63
69245;BME280;56357;52.304;4.870;2023-02-04T09:01:22;103886.72;;;17.80;55.82
69245;BME280;56357;52.304;4.870;2023-02-04T09:03:48;103897.63;;;17.96;55.54
69245;BME280;56357;52.304;4.870;2023-02-04T09:06:15;103901.25;;;17.90;55.67
69245;BME280;56357;52.304;4.870;2023-02-04T09:08:41;103899.13;;;17.98;55.14
69245;BME280;56357;52.304;4.870;2023-02-04T09:11:08;103900.81;;;17.93;55.74
69245;BME280;56357;52.304;4.870;2023-02-04T09:13:37;103898.88;;;17.93;55.34
69245;BME280;56357;52.304;4.870;2023-02-04T09:16:03;103908.00;;;18.02;55.56
69245;BME280;56357;52.304;4.870;2023-02-04T09:18:30;103908.19;;;18.00;54.97
69245;BME280;56357;52.304;4.870;2023-02-04T09:20:57;103906.19;;;17.94;55.55
69245;BME280;56357;52.304;4.870;2023-02-04T09:23:24;103917.25;;;17.96;55.13
69245;BME280;56357;52.304;4.870;2023-02-04T09:25:50;103914.88;;;17.99;55.31
69245;BME280;56357;52.304;4.870;2023-02-04T09:28:17;103917.69;;;17.99;55.09
69245;BME280;56357;52.304;4.870;2023-02-04T09:30:44;103902.63;;;18.07;54.92
69245;BME280;56357;52.304;4.870;2023-02-04T09:33:13;103914.63;;;17.94;55.18
69245;BME280;56357;52.304;4.870;2023-02-04T09:35:40;103907.78;;;18.03;54.85
69245;BME280;56357;52.304;4.870;2023-02-04T09:38:07;103911.28;;;18.12;54.68
69245;BME280;56357;52.304;4.870;2023-02-04T09:40:37;103913.25;;;18.11;54.87
69245;BME280;56357;52.304;4.870;2023-02-04T09:43:06;103921.22;;;18.14;54.80
69245;BME280;56357;52.304;4.870;2023-02-04T09:45:34;103928.97;;;18.12;54.73
69245;BME280;56357;52.304;4.870;2023-02-04T09:48:03;103917.03;;;18.04;55.02
69245;BME280;56357;52.304;4.870;2023-02-04T09:50:31;103924.47;;;18.11;54.70
69245;BME280;56357;52.304;4.870;2023-02-04T09:53:00;103913.88;;;18.13;54.78
69245;BME280;56357;52.304;4.870;2023-02-04T09:55:34;103933.72;;;18.12;54.51
69245;BME280;56357;52.304;4.870;2023-02-04T09:58:01;103931.78;;;18.12;54.60
69245;BME280;56357;52.304;4.870;2023-02-04T10:00:29;103939.38;;;18.18;54.49
69245;BME280;56357;52.304;4.870;2023-02-04T10:02:59;103941.09;;;18.19;54.39
69245;BME280;56357;52.304;4.870;2023-02-04T10:05:31;103944.31;;;18.16;54.16
69245;BME280;56357;52.304;4.870;2023-02-04T10:08:03;103943.34;;;18.31;54.23
69245;BME280;56357;52.304;4.870;2023-02-04T10:10:30;103949.75;;;18.59;53.65
69245;BME280;56357;52.304;4.870;2023-02-04T10:12:59;103950.69;;;18.79;53.02
69245;BME280;56357;52.304;4.870;2023-02-04T10:15:27;103957.22;;;18.86;52.79
69245;BME280;56357;52.304;4.870;2023-02-04T10:17:57;103957.69;;;18.96;52.39
69245;BME280;56357;52.304;4.870;2023-02-04T10:20:26;103951.59;;;18.86;52.76
69245;BME280;56357;52.304;4.870;2023-02-04T10:22:54;103954.41;;;18.86;52.99
69245;BME280;56357;52.304;4.870;2023-02-04T10:25:23;103955.38;;;18.59;53.19
69245;BME280;56357;52.304;4.870;2023-02-04T10:27:55;103940.25;;;18.53;53.10
69245;BME280;56357;52.304;4.870;2023-02-04T10:30:23;103958.56;;;18.49;53.43
69245;BME280;56357;52.304;4.870;2023-02-04T10:32:51;103948.84;;;18.45;53.33
69245;BME280;56357;52.304;4.870;2023-02-04T10:35:19;103963.31;;;18.49;53.40
69245;BME280;56357;52.304;4.870;2023-02-04T10:37:47;103955.34;;;18.52;53.57
69245;BME280;56357;52.304;4.870;2023-02-04T10:40:36;103954.88;;;18.49;53.11
69245;BME280;56357;52.304;4.870;2023-02-04T10:43:10;103952.50;;;18.46;53.47
69245;BME280;56357;52.304;4.870;2023-02-04T10:45:37;103955.16;;;18.54;53.16
69245;BME280;56357;52.304;4.870;2023-02-04T10:48:04;103956.41;;;18.51;53.50
69245;BME280;56357;52.304;4.870;2023-02-04T10:50:32;103953.84;;;18.50;53.30
69245;BME280;56357;52.304;4.870;2023-02-04T10:52:59;103961.81;;;18.53;53.56
69245;BME280;56357;52.304;4.870;2023-02-04T10:55:39;103956.88;;;18.55;53.40
69245;BME280;56357;52.304;4.870;2023-02-04T10:58:09;103961.59;;;18.48;53.34
69245;BME280;56357;52.304;4.870;2023-02-04T11:00:37;103957.97;;;18.54;53.24
69245;BME280;56357;52.304;4.870;2023-02-04T11:03:11;103951.25;;;18.55;53.17
69245;BME280;56357;52.304;4.870;2023-02-04T11:05:40;103952.34;;;18.54;53.43
69245;BME280;56357;52.304;4.870;2023-02-04T11:08:30;103963.78;;;18.59;53.49
69245;BME280;56357;52.304;4.870;2023-02-04T11:11:03;103953.63;;;18.51;53.50
69245;BME280;56357;52.304;4.870;2023-02-04T11:26:51;103956.75;;;18.76;54.42
69245;BME280;56357;52.304;4.870;2023-02-04T11:29:33;103952.22;;;18.75;54.83
69245;BME280;56357;52.304;4.870;2023-02-04T11:32:54;103951.78;;;18.78;55.02
69245;BME280;56357;52.304;4.870;2023-02-04T11:37:41;103948.75;;;18.73;54.60
69245;BME280;56357;52.304;4.870;2023-02-04T11:40:31;103956.97;;;18.81;54.91
69245;BME280;56357;52.304;4.870;2023-02-04T11:43:08;103950.06;;;18.83;55.08
69245;BME280;56357;52.304;4.870;2023-02-04T11:45:37;103941.84;;;18.82;55.47
69245;BME280;56357;52.304;4.870;2023-02-04T11:48:16;103945.72;;;18.74;55.14
69245;BME280;56357;52.304;4.870;2023-02-04T11:50:57;103948.75;;;18.79;55.21
69245;BME280;56357;52.304;4.870;2023-02-04T11:53:31;103942.25;;;18.79;55.14
69245;BME280;56357;52.304;4.870;2023-02-04T11:55:58;103956.13;;;18.87;54.80
69245;BME280;56357;52.304;4.870;2023-02-04T11:58:27;103949.00;;;18.91;54.52
69245;BME280;56357;52.304;4.870;2023-02-04T12:00:55;103950.69;;;18.79;54.90
69245;BME280;56357;52.304;4.870;2023-02-04T12:03:28;103953.75;;;18.84;54.76
69245;BME280;56357;52.304;4.870;2023-02-04T12:05:56;103962.59;;;18.87;54.79
69245;BME280;56357;52.304;4.870;2023-02-04T12:08:30;103961.53;;;18.88;54.99
69245;BME280;56357;52.304;4.870;2023-02-04T12:11:08;103955.91;;;18.88;54.89
69245;BME280;56357;52.304;4.870;2023-02-04T12:14:09;103957.88;;;18.88;54.94
69245;BME280;56357;52.304;4.870;2023-02-04T12:16:44;103955.03;;;18.81;55.18
69245;BME280;56357;52.304;4.870;2023-02-04T12:19:11;103955.06;;;18.94;55.33
69245;BME280;56357;52.304;4.870;2023-02-04T12:21:38;103959.19;;;18.98;55.48
69245;BME280;56357;52.304;4.870;2023-02-04T12:24:05;103948.81;;;18.99;55.38
69245;BME280;56357;52.304;4.870;2023-02-04T12:26:31;103958.78;;;19.08;55.47
69245;BME280;56357;52.304;4.870;2023-02-04T12:28:58;103952.53;;;19.12;55.74
69245;BME280;56357;52.304;4.870;2023-02-04T12:31:28;103958.38;;;19.11;55.25
69245;BME280;56357;52.304;4.870;2023-02-04T12:33:54;103968.06;;;19.08;55.79
69245;BME280;56357;52.304;4.870;2023-02-04T12:36:21;103959.19;;;19.11;55.73
69245;BME280;56357;52.304;4.870;2023-02-04T12:38:48;103953.91;;;19.49;58.58
69245;BME280;56357;52.304;4.870;2023-02-04T12:41:15;103964.50;;;19.34;56.25
69245;BME280;56357;52.304;4.870;2023-02-04T12:43:42;103966.19;;;19.29;56.41
69245;BME280;56357;52.304;4.870;2023-02-04T12:46:09;103961.47;;;19.55;57.45
69245;BME280;56357;52.304;4.870;2023-02-04T12:48:35;103961.03;;;19.32;56.02
69245;BME280;56357;52.304;4.870;2023-02-04T12:51:05;103956.63;;;19.23;56.92
69245;BME280;56357;52.304;4.870;2023-02-04T12:53:32;103963.53;;;19.14;56.54
69245;BME280;56357;52.304;4.870;2023-02-04T12:55:58;103951.75;;;19.38;57.42
69245;BME280;56357;52.304;4.870;2023-02-04T12:58:25;103955.63;;;19.50;55.97
69245;BME280;56357;52.304;4.870;2023-02-04T13:00:51;103956.06;;;19.60;57.12
69245;BME280;56357;52.304;4.870;2023-02-04T13:03:18;103950.00;;;19.57;56.07
69245;BME280;56357;52.304;4.870;2023-02-04T13:05:44;103940.28;;;19.53;56.89
69245;BME280;56357;52.304;4.870;2023-02-04T13:08:11;103937.91;;;19.50;56.71
69245;BME280;56357;52.304;4.870;2023-02-04T13:10:37;103930.97;;;19.39;56.05